Terminal Aerodrome Forecast
Issued by NWS Northern Indiana

Home | Current Version | Previous Version | Graphics & Text | Print | Product List | Glossary On
Versions: 1 2 3 4 5 6 7 8 9 10 11 12 13 14 15 16 17 18 19
737
FTUS43 KIWX 231130
TAFFWA
TAF
KFWA 231130Z 2312/2412 20004KT P6SM SCT060 BKN100
     FM232300 12004KT P6SM FEW050 BKN100
     FM240500 07005KT P6SM SCT050 BKN080=

USA.gov is the U.S. government's official web portal to all federal, state and local government web resources and services.